Cohoctah, MI (48816)

3:07 PM EDT on August 27, 2016 (GMT -0400)
Deerfield Township | | Change Station

Elev 876 ft 42.73 °N, 83.88 °W | Updated 14 minutes ago

Light Rain
Light Rain
70.0 °F
Feels Like 70.0 °F
N
0.0
Wind Variable Wind from South

Today
High -- | Low -- °F
--% Chance of Precip.
Yesterday
High -- | Low -- °F
Precip. -- in
Pressure 30.12 in
Visibility 7.0 miles
Clouds Overcast 400 ft
Dew Point 67 °F
Humidity 89%
Rainfall 0.27 in
Snow Depth Not available.
6:55 AM 8:17 PM
Waning Crescent, 22% visible
METAR KOZW 271855Z AUTO 00000KT 7SM -RA OVC004 21/21 A3012 RMK AO2 T02110207
Pressure 30.12 in
Visibility 7.0 miles
Clouds Overcast 400 ft
Dew Point 67 °F
Humidity 89%
Rainfall 0.27 in
Snow Depth Not available.
6:55 AM 8:17 PM
Waning Crescent, 22% visible
METAR KOZW 271855Z AUTO 00000KT 7SM -RA OVC004 21/21 A3012 RMK AO2 T02110207

10-Day Weather Forecast

Almanac

Astronomy

Aug. 27, 2016 Rise Set
Actual Time
Civil Twilight
Nautical Twilight
Astronomical Twilight
Moon
Length of Visible Light
Length of Day
Tomorrow will be .
, % of the Moon is Illuminated

Today's Extremes

State Highs State Lows

Community

WunderPhotos

Upload Photos

1,935,399 photos uploaded!

WunderBlog® & News

Nearby

Air Quality

  Air Quality AQ Index Pollutant
Not available.

Snow Depth

Station Depth Elevation

Earthquake Activity

City Distance Mag. Time & Date
Minimum magnitude displayed is 2.5.

Coastal Water Temperatures

Place Temperature

Stations

Nearby Weather Stations

Station Location Temp. Windchill Dew Point Humidity Wind Precip. Elev Updated Type
                   

Watches & Warnings

There are currently no watches in effect.